Time;durP1;ratioP1;P1;durP2;ratioP2;P2;SDS_P1;SDS_P2;PMS_P1;PMS_P2;Temp;Humidity;BMP_temperature;BMP_pressure;BME280_temperature;BME280_humidity;BME280_pressure;Samples;Min_cycle;Max_cycle;Signal;HPM_P1;HPM_P2
2021/10/07 00:00:06;;;;;;;3.55;1.52;;;;;;;7.26;42.44;102904.00;453258;115;922956;-75
2021/10/07 00:01:11;;;;;;;2.71;1.52;;;;;;;7.25;42.41;102904.98;451902;114;923195;-76
2021/10/07 00:02:16;;;;;;;2.04;1.50;;;;;;;7.26;42.45;102897.72;452139;114;922712;-75
2021/10/07 00:03:21;;;;;;;2.89;1.56;;;;;;;7.26;42.41;102901.29;453361;114;923025;-76
2021/10/07 00:04:25;;;;;;;2.48;1.78;;;;;;;7.25;42.43;102901.41;452609;114;922361;-76
2021/10/07 00:05:29;;;;;;;3.18;1.34;;;;;;;7.24;42.40;102900.55;453082;114;923022;-77
2021/10/07 00:06:34;;;;;;;3.33;1.58;;;;;;;7.25;42.42;102896.85;453353;114;923036;-76
2021/10/07 00:07:37;;;;;;;2.07;1.36;;;;;;;7.24;42.49;102897.84;453044;114;930827;-76
2021/10/07 00:08:41;;;;;;;3.99;1.24;;;;;;;7.23;42.49;102897.97;454053;114;922652;-78
2021/10/07 00:09:44;;;;;;;4.71;1.67;;;;;;;7.21;42.46;102895.41;454721;114;922639;-76
2021/10/07 00:10:48;;;;;;;2.70;1.31;;;;;;;7.21;42.42;102899.98;453180;114;922599;-75
2021/10/07 00:11:52;;;;;;;2.83;1.36;;;;;;;7.20;42.43;102893.69;454602;114;930442;-75
2021/10/07 00:12:55;;;;;;;3.89;1.52;;;;;;;7.20;42.46;102892.83;454239;114;922663;-76
2021/10/07 00:14:00;;;;;;;3.91;1.47;;;;;;;7.19;42.48;102891.97;454974;114;922969;-77
2021/10/07 00:15:04;;;;;;;2.34;1.29;;;;;;;7.20;42.52;102892.83;451939;114;923025;-75
2021/10/07 00:16:09;;;;;;;2.23;1.52;;;;;;;7.19;42.54;102897.39;453334;114;922635;-75
2021/10/07 00:17:13;;;;;;;1.74;1.28;;;;;;;7.18;42.49;102895.67;451552;114;922588;-75
2021/10/07 00:18:17;;;;;;;2.60;1.29;;;;;;;7.18;42.44;102894.80;453435;114;923023;-77
2021/10/07 00:19:21;;;;;;;2.39;1.22;;;;;;;7.17;42.44;102899.38;454021;114;930287;-76
2021/10/07 00:20:26;;;;;;;2.98;1.73;;;;;;;7.16;42.45;102894.11;452503;114;930292;-77
2021/10/07 00:21:30;;;;;;;1.93;1.20;;;;;;;7.15;42.44;102898.67;452269;114;923135;-76
2021/10/07 00:22:33;;;;;;;4.18;1.21;;;;;;;7.15;42.42;102893.24;443964;116;930460;-76
2021/10/07 00:23:48;;;;;;;1.21;1.10;;;;;;;7.13;42.40;102896.08;444835;115;930479;-78
2021/10/07 00:24:42;;;;;;;4.89;1.91;;;;;;;7.13;42.39;102892.51;452681;114;930182;-76
2021/10/07 00:25:47;;;;;;;3.39;1.55;;;;;;;7.11;42.42;102903.48;452471;114;923399;-77
2021/10/07 00:26:50;;;;;;;3.01;1.37;;;;;;;7.11;42.44;102899.94;452198;114;923033;-77
2021/10/07 00:28:01;;;;;;;4.38;1.41;;;;;;;7.09;42.47;102900.07;453689;114;930214;-77
2021/10/07 00:30:21;;;;;;;2.00;1.49;;;;;;;7.20;42.42;102899.12;464400;110;1200571;-76
2021/10/07 00:31:22;;;;;;;4.19;1.32;;;;;;;7.09;42.42;102902.78;452859;114;930364;-76
2021/10/07 00:32:29;;;;;;;2.78;1.30;;;;;;;7.10;42.42;102899.08;455981;114;923132;-78
2021/10/07 00:33:42;;;;;;;2.11;1.17;;;;;;;7.10;42.39;102896.38;459251;114;923413;-77
2021/10/07 00:34:50;;;;;;;1.89;1.20;;;;;;;7.08;42.40;102895.63;456527;113;923124;-75
2021/10/07 00:36:02;;;;;;;1.78;1.22;;;;;;;7.07;42.43;102895.77;455944;113;922543;-77
2021/10/07 00:37:00;;;;;;;1.90;1.56;;;;;;;7.06;42.44;102894.90;454824;115;922871;-76
2021/10/07 00:39:25;;;;;;;2.27;1.23;;;;;;;7.03;42.47;102894.33;457266;114;923060;-75
2021/10/07 00:40:28;;;;;;;2.82;1.81;;;;;;;7.00;42.55;102892.72;457410;114;922979;-76
2021/10/07 00:41:35;;;;;;;2.17;1.42;;;;;;;6.99;42.59;102895.59;457602;113;923183;-76
2021/10/07 00:42:39;;;;;;;3.93;1.58;;;;;;;6.97;42.60;102898.44;457177;114;923144;-76
2021/10/07 00:43:42;;;;;;;3.24;1.46;;;;;;;6.96;42.61;102895.84;457992;113;922656;-75
2021/10/07 00:44:47;;;;;;;1.64;1.44;;;;;;;6.94;42.67;102904.14;456698;113;923316;-77
2021/10/07 00:45:53;;;;;;;3.59;1.40;;;;;;;6.93;42.72;102907.84;456987;114;930329;-75
2021/10/07 00:46:59;;;;;;;1.73;1.12;;;;;;;6.92;42.73;102906.12;457438;114;922587;-76
2021/10/07 00:48:03;;;;;;;4.82;1.64;;;;;;;6.91;42.75;102898.97;457354;114;922900;-77
2021/10/07 00:49:07;;;;;;;2.94;1.66;;;;;;;6.90;42.77;102902.67;457551;113;922605;-77
2021/10/07 00:50:11;;;;;;;2.19;1.54;;;;;;;6.89;42.81;102898.23;457601;114;922935;-78
2021/10/07 00:51:14;;;;;;;2.39;1.37;;;;;;;6.88;42.87;102893.83;457674;115;923259;-75
2021/10/07 00:52:19;;;;;;;3.06;1.46;;;;;;;6.88;42.85;102896.54;457511;113;930300;-76
2021/10/07 00:53:23;;;;;;;1.87;1.50;;;;;;;6.87;42.91;102902.95;457231;113;922643;-76
2021/10/07 00:54:27;;;;;;;4.47;1.41;;;;;;;6.87;42.94;102899.38;456753;115;922932;-76
2021/10/07 00:55:30;;;;;;;2.24;1.10;;;;;;;6.85;42.97;102899.50;457133;115;930397;-75
2021/10/07 00:56:35;;;;;;;2.45;1.24;;;;;;;6.85;42.96;102887.80;457254;114;922532;-76
2021/10/07 00:57:40;;;;;;;2.24;1.38;;;;;;;6.84;43.00;102892.36;457274;114;922747;-75
2021/10/07 00:58:45;;;;;;;3.36;1.39;;;;;;;6.83;43.02;102893.38;456796;114;930389;-76
2021/10/07 00:59:50;;;;;;;2.80;1.46;;;;;;;6.83;43.04;102898.80;457515;113;922781;-77
2021/10/07 01:00:53;;;;;;;3.74;1.30;;;;;;;6.82;43.06;102897.07;456863;114;922967;-76
2021/10/07 01:01:57;;;;;;;2.42;1.16;;;;;;;6.82;43.11;102901.63;457352;113;922940;-75
2021/10/07 01:03:01;;;;;;;2.41;1.11;;;;;;;6.82;43.11;102901.63;457674;114;922548;-76
2021/10/07 01:04:04;;;;;;;2.17;1.48;;;;;;;6.80;43.24;102896.34;457435;114;930216;-72
2021/10/07 01:05:09;;;;;;;2.13;1.51;;;;;;;6.80;43.26;102899.05;456797;113;923161;-75
2021/10/07 01:06:13;;;;;;;1.69;1.53;;;;;;;6.79;43.27;102899.17;457984;114;923564;-75
2021/10/07 01:07:16;;;;;;;3.36;1.80;;;;;;;6.77;43.33;102899.33;449850;116;930289;-74
2021/10/07 01:08:20;;;;;;;6.27;1.77;;;;;;;6.77;43.36;102901.17;449611;115;922633;-76
2021/10/07 01:09:23;;;;;;;2.37;1.31;;;;;;;6.76;43.35;102894.89;457248;114;930644;-76
2021/10/07 01:10:28;;;;;;;2.58;1.51;;;;;;;6.76;43.35;102903.03;457744;113;930388;-75
2021/10/07 01:11:32;;;;;;;2.01;1.26;;;;;;;6.75;43.38;102898.59;457495;115;923166;-75
2021/10/07 01:12:36;;;;;;;1.61;1.11;;;;;;;6.75;43.45;102897.73;457544;115;930238;-76
2021/10/07 01:13:41;;;;;;;5.67;1.99;;;;;;;6.75;43.49;102895.02;457072;114;922466;-74
2021/10/07 01:14:53;;;;;;;2.37;1.29;;;;;;;6.74;43.49;102893.30;457209;113;923061;-74
2021/10/07 01:16:01;;;;;;;5.83;1.19;;;;;;;6.72;43.51;102901.58;457409;113;923025;-73
2021/10/07 01:17:05;;;;;;;4.22;1.23;;;;;;;6.72;43.52;102896.16;440536;118;923093;-75
2021/10/07 01:18:08;;;;;;;2.48;1.30;;;;;;;6.71;43.54;102894.44;457111;113;922548;-75
2021/10/07 01:19:12;;;;;;;1.95;1.20;;;;;;;6.71;43.58;102897.15;457405;113;922994;-73
2021/10/07 01:20:17;;;;;;;1.38;1.07;;;;;;;6.70;43.63;102899.00;457106;114;922521;-76
2021/10/07 01:21:21;;;;;;;1.57;0.92;;;;;;;6.70;43.67;102896.28;457242;113;923091;-74
2021/10/07 01:22:26;;;;;;;2.31;1.39;;;;;;;6.71;43.69;102894.44;449941;116;922564;-75
2021/10/07 01:23:29;;;;;;;3.96;1.32;;;;;;;6.71;43.72;102897.15;449939;115;923097;-74
2021/10/07 01:24:34;;;;;;;5.37;1.31;;;;;;;6.71;43.69;102897.15;448982;116;930284;-75
2021/10/07 01:25:37;;;;;;;3.71;1.46;;;;;;;6.71;43.68;102902.57;457738;113;922858;-76
2021/10/07 01:26:41;;;;;;;2.39;1.18;;;;;;;6.72;43.69;102903.44;457240;115;923011;-75
2021/10/07 01:27:48;;;;;;;4.71;1.51;;;;;;;6.72;43.75;102903.44;457357;113;922871;-74
2021/10/07 01:28:52;;;;;;;2.60;1.32;;;;;;;6.73;43.78;102902.45;457202;113;930592;-75
2021/10/07 01:29:58;;;;;;;2.61;1.11;;;;;;;6.72;43.78;102903.44;456168;114;923101;-76
2021/10/07 01:31:02;;;;;;;2.25;2.02;;;;;;;6.71;43.76;102902.57;454249;114;930492;-75
2021/10/07 01:32:08;;;;;;;3.90;2.71;;;;;;;6.70;43.74;102903.55;454931;114;922727;-71
2021/10/07 01:33:11;;;;;;;2.22;1.58;;;;;;;6.68;43.78;102903.68;455558;115;922704;-75
2021/10/07 01:34:23;;;;;;;1.65;1.49;;;;;;;6.67;43.81;102901.95;455732;114;922844;-75
2021/10/07 01:35:27;;;;;;;2.49;1.84;;;;;;;6.66;43.88;102904.83;455362;116;922682;-75
2021/10/07 01:36:31;;;;;;;2.78;1.16;;;;;;;6.65;43.93;102903.96;455723;114;922922;-75
2021/10/07 01:37:34;;;;;;;1.24;1.09;;;;;;;6.64;43.95;102901.37;455954;115;923307;-75
2021/10/07 01:38:38;;;;;;;2.11;1.42;;;;;;;6.63;44.03;102905.07;456159;114;930683;-75
2021/10/07 01:39:41;;;;;;;3.47;1.17;;;;;;;6.63;44.03;102903.22;456007;114;922856;-75
2021/10/07 01:40:45;;;;;;;1.99;1.30;;;;;;;6.63;44.03;102905.07;455427;114;922959;-76
2021/10/07 01:41:49;;;;;;;2.73;1.59;;;;;;;6.61;44.04;102902.52;455079;114;922628;-75
2021/10/07 01:42:53;;;;;;;3.31;1.16;;;;;;;6.61;44.11;102909.78;454847;114;930294;-77
2021/10/07 01:43:56;;;;;;;2.10;1.28;;;;;;;6.59;44.12;102907.20;454536;114;923028;-75
2021/10/07 01:45:00;;;;;;;2.64;1.32;;;;;;;6.58;44.13;102905.47;455291;115;922794;-78
2021/10/07 01:46:04;;;;;;;1.83;1.17;;;;;;;6.58;44.18;102910.89;455138;114;930205;-77
2021/10/07 01:47:07;;;;;;;2.58;1.44;;;;;;;6.59;44.19;102919.89;454708;115;930172;-76
2021/10/07 01:48:11;;;;;;;1.52;1.09;;;;;;;6.59;44.20;102914.47;455448;114;922892;-76
2021/10/07 01:49:15;;;;;;;2.14;1.30;;;;;;;6.59;44.22;102912.62;454931;114;922640;-75
2021/10/07 01:50:19;;;;;;;2.12;1.18;;;;;;;6.59;44.22;102920.75;455249;114;930224;-75
2021/10/07 01:51:23;;;;;;;1.64;0.96;;;;;;;6.59;44.29;102919.89;455329;114;922633;-75
2021/10/07 01:52:26;;;;;;;3.21;1.10;;;;;;;6.59;44.29;102919.89;454916;114;930337;-76
2021/10/07 01:53:30;;;;;;;1.36;1.08;;;;;;;6.60;44.19;102917.05;455427;114;922771;-76
2021/10/07 01:54:33;;;;;;;2.62;1.17;;;;;;;6.60;44.23;102917.05;455072;114;922693;-76
2021/10/07 01:55:37;;;;;;;2.29;1.15;;;;;;;6.60;44.20;102922.47;454864;114;930315;-75
2021/10/07 01:56:41;;;;;;;1.92;0.99;;;;;;;6.60;44.20;102919.77;455538;114;923074;-73
2021/10/07 01:57:44;;;;;;;2.32;1.29;;;;;;;6.60;44.21;102914.34;455781;114;922403;-77
2021/10/07 01:58:48;;;;;;;1.81;1.00;;;;;;;6.60;44.17;102916.19;455041;114;922856;-76
2021/10/07 01:59:51;;;;;;;2.94;1.15;;;;;;;6.60;44.19;102916.19;454755;114;930219;-76
2021/10/07 02:00:56;;;;;;;3.08;1.32;;;;;;;6.59;44.24;102915.33;454891;114;928675;-75
2021/10/07 02:01:59;;;;;;;2.91;1.70;;;;;;;6.58;44.21;102918.16;455628;114;922530;-78
2021/10/07 02:03:03;;;;;;;1.36;1.05;;;;;;;6.58;44.19;102907.32;455242;114;922749;-77
2021/10/07 02:04:07;;;;;;;3.31;1.18;;;;;;;6.57;44.25;102911.02;455297;114;923158;-76
2021/10/07 02:05:10;;;;;;;1.83;1.23;;;;;;;6.56;44.30;102910.16;455099;115;930485;-74
2021/10/07 02:06:14;;;;;;;3.69;1.27;;;;;;;6.56;44.34;102907.44;454945;114;930319;-76
2021/10/07 02:07:20;;;;;;;1.56;1.20;;;;;;;6.56;44.35;102904.73;454714;114;922409;-75
2021/10/07 02:08:24;;;;;;;7.46;1.54;;;;;;;6.56;44.35;102906.61;454580;115;923197;-76
2021/10/07 02:09:27;;;;;;;2.60;1.38;;;;;;;6.56;44.35;102903.91;455006;116;922515;-72
2021/10/07 02:10:32;;;;;;;2.71;1.16;;;;;;;6.56;44.40;102903.91;455294;115;930340;-77
2021/10/07 02:11:36;;;;;;;3.48;1.39;;;;;;;6.56;44.41;102903.91;454513;114;922661;-75
2021/10/07 02:12:40;;;;;;;1.36;1.03;;;;;;;6.56;44.41;102903.91;455309;115;930883;-74
2021/10/07 02:13:44;;;;;;;3.42;1.57;;;;;;;6.55;44.44;102907.59;455600;114;922545;-75
2021/10/07 02:14:48;;;;;;;2.21;1.79;;;;;;;6.55;44.42;102908.46;447206;116;922896;-76
2021/10/07 02:15:51;;;;;;;3.82;3.13;;;;;;;6.55;44.44;102907.59;447199;116;922709;-77
2021/10/07 02:16:55;;;;;;;3.60;1.53;;;;;;;6.54;44.42;102903.16;454554;114;931098;-77
2021/10/07 02:17:59;;;;;;;1.42;1.32;;;;;;;6.54;44.42;102908.59;455200;115;923386;-75
2021/10/07 02:19:03;;;;;;;1.67;1.37;;;;;;;6.51;44.41;102904.27;455011;114;930301;-76
2021/10/07 02:20:10;;;;;;;2.58;1.48;;;;;;;6.51;44.46;102906.98;454165;115;922746;-74
2021/10/07 02:21:14;;;;;;;2.46;1.53;;;;;;;6.52;44.47;102910.55;455280;114;922969;-76
2021/10/07 02:22:17;;;;;;;2.06;1.57;;;;;;;6.51;44.49;102919.67;455158;114;923126;-76
2021/10/07 02:23:21;;;;;;;3.52;1.31;;;;;;;6.50;44.48;102909.84;454810;114;930302;-76
2021/10/07 02:24:25;;;;;;;1.75;1.35;;;;;;;6.49;44.51;102905.41;454664;114;930315;-74
2021/10/07 02:25:29;;;;;;;3.72;1.33;;;;;;;6.49;44.55;102918.97;455283;114;923126;-74
2021/10/07 02:26:34;;;;;;;2.47;1.64;;;;;;;6.47;44.54;102915.52;455246;114;926822;-75
2021/10/07 02:27:37;;;;;;;1.81;1.11;;;;;;;6.45;44.61;102915.63;454145;114;923136;-75
2021/10/07 02:28:41;;;;;;;2.46;1.28;;;;;;;6.45;44.66;102915.63;454841;114;930305;-76
2021/10/07 02:29:46;;;;;;;2.46;1.62;;;;;;;6.43;44.67;102919.48;445951;118;922907;-76
2021/10/07 02:30:53;;;;;;;1.98;1.33;;;;;;;6.41;44.72;102916.03;448527;115;923606;-76
2021/10/07 02:31:56;;;;;;;1.79;1.28;;;;;;;6.40;44.77;102922.44;456997;113;923116;-74
2021/10/07 02:33:00;;;;;;;2.74;1.22;;;;;;;6.38;44.80;102919.88;457699;113;923017;-75
2021/10/07 02:34:04;;;;;;;3.83;1.47;;;;;;;6.36;44.88;102921.84;457295;113;930188;-75
2021/10/07 02:35:08;;;;;;;1.82;1.06;;;;;;;6.34;44.97;102918.40;457543;113;930373;-76
2021/10/07 02:36:12;;;;;;;1.92;1.29;;;;;;;6.33;44.99;102924.83;457323;113;930245;-76
2021/10/07 02:37:15;;;;;;;5.53;1.66;;;;;;;6.31;45.05;102915.10;457437;115;930209;-75
2021/10/07 02:38:19;;;;;;;2.74;1.35;;;;;;;6.31;45.11;102920.52;457071;113;922608;-75
2021/10/07 02:39:22;;;;;;;1.83;1.17;;;;;;;6.28;45.15;102929.78;456912;113;928063;-76
2021/10/07 02:40:28;;;;;;;6.04;1.89;;;;;;;6.27;45.16;102925.34;457196;113;923038;-75
2021/10/07 02:41:32;;;;;;;2.21;1.42;;;;;;;6.26;45.19;102929.05;457451;113;923173;-75
2021/10/07 02:42:35;;;;;;;2.25;1.44;;;;;;;6.24;45.27;102923.75;457485;113;930229;-74
2021/10/07 02:43:39;;;;;;;1.89;1.46;;;;;;;6.23;45.33;102923.86;457023;114;923045;-74
2021/10/07 02:44:43;;;;;;;2.99;1.56;;;;;;;6.22;45.39;102930.30;457123;113;923061;-74
2021/10/07 02:45:47;;;;;;;6.64;2.08;;;;;;;6.22;45.42;102924.88;456713;113;930536;-75
2021/10/07 02:46:52;;;;;;;3.31;1.23;;;;;;;6.21;45.48;102931.28;457107;114;930473;-75
2021/10/07 02:47:56;;;;;;;1.51;1.23;;;;;;;6.20;45.52;102927.71;457630;113;923056;-75
2021/10/07 02:49:00;;;;;;;5.14;1.48;;;;;;;6.22;45.54;102935.72;457119;113;930323;-76
2021/10/07 02:50:06;;;;;;;2.73;1.68;;;;;;;6.21;45.54;102939.41;456873;113;923012;-75
2021/10/07 02:51:09;;;;;;;3.14;2.01;;;;;;;6.21;45.56;102939.41;456735;115;930634;-75
2021/10/07 02:52:13;;;;;;;4.22;1.98;;;;;;;6.21;45.56;102937.56;457400;113;922904;-76
2021/10/07 02:53:16;;;;;;;3.70;1.46;;;;;;;6.20;45.56;102937.68;457170;113;922857;-78
2021/10/07 02:54:20;;;;;;;7.73;1.58;;;;;;;6.19;45.50;102935.95;457084;113;930272;-75
2021/10/07 02:55:23;;;;;;;2.55;1.57;;;;;;;6.18;45.55;102937.80;457300;113;923133;-76
2021/10/07 02:56:29;;;;;;;3.33;1.68;;;;;;;6.18;45.60;102939.65;456963;113;923008;-75
2021/10/07 02:57:32;;;;;;;2.96;1.87;;;;;;;6.18;45.57;102939.65;457657;114;922586;-76
2021/10/07 02:58:36;;;;;;;2.67;1.98;;;;;;;6.15;45.56;102935.37;457488;113;922514;-76
2021/10/07 02:59:40;;;;;;;2.23;1.85;;;;;;;6.16;45.61;102944.35;456920;113;923181;-75
2021/10/07 03:00:45;;;;;;;4.66;1.71;;;;;;;6.15;45.62;102946.20;457144;114;923149;-78
2021/10/07 03:01:51;;;;;;;3.64;2.12;;;;;;;6.15;45.63;102948.91;456608;113;922674;-74
2021/10/07 03:02:54;;;;;;;3.88;1.79;;;;;;;6.13;45.64;102945.45;457372;115;922491;-75
2021/10/07 03:03:59;;;;;;;2.64;1.86;;;;;;;6.12;45.66;102943.73;456897;113;923004;-74
2021/10/07 03:05:04;;;;;;;2.23;1.67;;;;;;;6.11;45.69;102950.16;456917;113;930401;-75
2021/10/07 03:06:08;;;;;;;2.69;1.83;;;;;;;6.12;45.68;102946.44;457129;114;922419;-76
2021/10/07 03:07:14;;;;;;;2.74;1.85;;;;;;;6.12;45.71;102943.73;457174;113;923831;-76
2021/10/07 03:08:18;;;;;;;2.24;1.75;;;;;;;6.12;45.69;102951.86;451603;115;923496;-75
2021/10/07 03:09:21;;;;;;;3.38;1.58;;;;;;;6.13;45.71;102955.42;451071;115;930778;-78
2021/10/07 03:10:25;;;;;;;2.85;1.59;;;;;;;6.13;45.72;102955.42;457253;113;922667;-77
2021/10/07 03:11:29;;;;;;;2.91;2.04;;;;;;;6.11;45.74;102950.16;456220;113;922921;-76
2021/10/07 03:12:32;;;;;;;3.31;1.94;;;;;;;6.11;45.74;102957.42;456817;113;930352;-75
2021/10/07 03:13:36;;;;;;;2.88;1.67;;;;;;;6.11;45.71;102958.28;457086;113;923025;-74
2021/10/07 03:14:42;;;;;;;5.88;2.02;;;;;;;6.09;45.73;102959.39;457143;114;923135;-73
2021/10/07 03:15:45;;;;;;;2.69;1.46;;;;;;;6.08;45.78;102960.38;457848;115;922945;-73
2021/10/07 03:16:49;;;;;;;3.59;1.63;;;;;;;6.08;45.84;102957.66;457674;113;923149;-74
2021/10/07 03:17:53;;;;;;;5.32;1.93;;;;;;;6.06;45.81;102959.66;457405;114;930638;-76
2021/10/07 03:18:56;;;;;;;4.12;1.99;;;;;;;6.05;45.82;102958.80;457252;113;930485;-76
2021/10/07 03:20:00;;;;;;;5.29;1.81;;;;;;;6.04;45.82;102961.63;449153;115;930394;-74
2021/10/07 03:21:04;;;;;;;2.23;1.88;;;;;;;6.01;45.85;102954.59;449549;115;930706;-75
2021/10/07 03:22:07;;;;;;;5.52;2.01;;;;;;;5.98;45.91;102952.16;457328;113;922588;-76
2021/10/07 03:23:11;;;;;;;5.23;1.80;;;;;;;5.97;46.02;102947.72;457450;113;930543;-76
2021/10/07 03:24:14;;;;;;;5.19;2.11;;;;;;;5.95;46.10;102946.15;457555;114;930524;-75
2021/10/07 03:25:19;;;;;;;3.47;2.02;;;;;;;5.92;46.10;102949.95;457028;113;930440;-76
2021/10/07 03:26:23;;;;;;;3.18;1.93;;;;;;;5.89;46.17;102947.52;449580;116;923222;-76
2021/10/07 03:27:26;;;;;;;4.76;2.17;;;;;;;5.86;46.27;102948.58;449366;116;922553;-74
2021/10/07 03:28:31;;;;;;;3.44;2.12;;;;;;;5.84;46.34;102949.71;457419;113;923267;-74
2021/10/07 03:29:35;;;;;;;4.83;2.17;;;;;;;5.80;46.35;102951.79;456868;114;922438;-76
2021/10/07 03:30:39;;;;;;;3.56;2.29;;;;;;;5.77;46.52;102949.34;457090;113;930551;-77
2021/10/07 03:31:42;;;;;;;4.64;2.62;;;;;;;5.75;46.66;102956.72;458191;113;930832;-76
2021/10/07 03:32:46;;;;;;;3.49;2.31;;;;;;;5.72;46.67;102948.87;458824;113;930595;-76
2021/10/07 03:33:49;;;;;;;5.74;2.36;;;;;;;5.67;46.67;102959.22;458446;113;922577;-76
2021/10/07 03:34:53;;;;;;;4.86;2.41;;;;;;;5.64;46.74;102955.87;458058;114;922620;-77
2021/10/07 03:35:56;;;;;;;2.71;1.94;;;;;;;5.61;46.83;102964.26;458723;113;923241;-74
2021/10/07 03:37:00;;;;;;;3.89;2.12;;;;;;;5.57;46.94;102963.62;458349;113;930427;-77
2021/10/07 03:38:04;;;;;;;6.91;2.39;;;;;;;5.55;47.03;102959.34;458041;113;923041;-75
2021/10/07 03:39:08;;;;;;;4.34;2.06;;;;;;;5.52;47.12;102963.14;448753;116;930714;-75
2021/10/07 03:40:13;;;;;;;4.10;2.14;;;;;;;5.49;47.16;102966.11;442665;119;930542;-76
2021/10/07 03:41:16;;;;;;;4.25;2.38;;;;;;;5.48;47.27;102958.97;442754;118;922477;-73
2021/10/07 03:42:19;;;;;;;4.09;2.05;;;;;;;5.49;47.39;102962.53;440567;118;922507;-76
2021/10/07 03:43:25;;;;;;;6.62;2.39;;;;;;;5.50;47.49;102965.13;444033;116;922782;-75
2021/10/07 03:44:29;;;;;;;5.46;2.25;;;;;;;5.50;47.53;102958.85;444428;118;922776;-76
2021/10/07 03:45:32;;;;;;;17.09;3.02;;;;;;;5.51;47.55;102957.88;443976;117;922595;-74
2021/10/07 03:46:37;;;;;;;11.86;2.88;;;;;;;5.53;47.61;102967.57;444373;117;922705;-75
2021/10/07 03:47:41;;;;;;;4.76;2.31;;;;;;;5.54;47.62;102963.89;444478;116;923025;-76
2021/10/07 03:48:45;;;;;;;17.80;2.96;;;;;;;5.55;47.63;102964.75;444463;117;923134;-76
2021/10/07 03:49:50;;;;;;;6.91;2.68;;;;;;;5.57;47.65;102968.20;443788;117;922641;-75
2021/10/07 03:50:54;;;;;;;3.73;2.37;;;;;;;5.57;47.70;102968.20;444675;116;922866;-74
2021/10/07 03:51:58;;;;;;;5.32;2.47;;;;;;;5.57;47.74;102979.86;444929;116;922625;-76
2021/10/07 03:53:01;;;;;;;4.22;2.39;;;;;;;5.58;47.72;102970.77;444747;117;923441;-76
2021/10/07 03:54:05;;;;;;;4.94;2.67;;;;;;;5.59;47.71;102972.48;444183;117;923333;-76
2021/10/07 03:55:09;;;;;;;5.76;2.94;;;;;;;5.60;47.79;102973.36;445116;116;930540;-76
2021/10/07 03:56:13;;;;;;;2.94;2.13;;;;;;;5.62;47.81;102974.97;444899;119;930663;-75
2021/10/07 03:57:16;;;;;;;3.13;2.43;;;;;;;5.64;47.81;102981.09;445048;117;922542;-75
2021/10/07 03:58:20;;;;;;;5.24;2.67;;;;;;;5.66;47.80;102979.14;444273;117;930509;-77
2021/10/07 03:59:24;;;;;;;4.46;2.62;;;;;;;5.67;47.70;102970.04;444054;116;923851;-77
2021/10/07 04:00:28;;;;;;;4.81;2.32;;;;;;;5.67;47.62;102975.45;436880;118;922724;-75
2021/10/07 04:01:31;;;;;;;7.47;3.29;;;;;;;5.67;47.61;102972.75;438098;119;923171;-75
2021/10/07 04:02:35;;;;;;;5.52;3.02;;;;;;;5.66;47.58;102972.86;444376;117;930634;-75
2021/10/07 04:03:41;;;;;;;4.09;2.51;;;;;;;5.64;47.68;102974.82;444169;116;923519;-76
2021/10/07 04:04:45;;;;;;;3.78;2.94;;;;;;;5.64;47.71;102974.82;444124;116;922634;-76
2021/10/07 04:05:49;;;;;;;3.26;2.36;;;;;;;5.64;47.71;102975.68;443946;118;930529;-76
2021/10/07 04:06:54;;;;;;;4.64;2.76;;;;;;;5.65;47.73;102976.55;443940;117;923099;-75
2021/10/07 04:07:58;;;;;;;10.99;2.37;;;;;;;5.67;47.66;102974.59;444548;116;922581;-73
2021/10/07 04:09:02;;;;;;;5.72;2.51;;;;;;;5.68;47.61;102979.02;444505;116;930633;-75
2021/10/07 04:10:08;;;;;;;4.29;3.07;;;;;;;5.69;47.62;102980.72;443918;117;922687;-74
2021/10/07 04:11:11;;;;;;;4.08;2.91;;;;;;;5.70;47.64;102977.89;444240;117;922874;-73
2021/10/07 04:12:17;;;;;;;6.81;3.83;;;;;;;5.73;47.64;102977.62;444245;117;922700;-76
2021/10/07 04:13:25;;;;;;;11.57;3.70;;;;;;;5.75;47.63;102983.80;444709;117;922525;-76
2021/10/07 04:14:28;;;;;;;4.38;3.24;;;;;;;5.79;47.58;102973.56;444816;117;930613;-76
2021/10/07 04:15:32;;;;;;;7.26;3.34;;;;;;;5.80;47.46;102969.88;444613;116;922857;-75
2021/10/07 04:16:37;;;;;;;4.21;2.84;;;;;;;5.82;47.47;102974.20;444573;116;930529;-74
2021/10/07 04:17:40;;;;;;;5.96;2.80;;;;;;;5.84;47.48;102972.20;444945;117;922612;-76
2021/10/07 04:18:44;;;;;;;7.86;3.23;;;;;;;5.87;47.46;102971.13;444733;117;930520;-75
2021/10/07 04:19:49;;;;;;;6.57;3.06;;;;;;;5.90;47.37;102970.04;445367;116;922953;-75
2021/10/07 04:20:53;;;;;;;2.98;2.62;;;;;;;5.92;47.31;102973.46;444952;116;930723;-76
2021/10/07 04:21:57;;;;;;;4.00;2.64;;;;;;;5.93;47.28;102976.05;444219;116;922712;-75
2021/10/07 04:23:00;;;;;;;7.79;3.14;;;;;;;5.95;47.29;102976.80;444020;118;930690;-74
2021/10/07 04:24:04;;;;;;;6.64;3.81;;;;;;;5.97;47.22;102968.52;444489;116;922558;-74
2021/10/07 04:25:08;;;;;;;7.21;2.78;;;;;;;5.98;47.20;102973.82;443929;116;923759;-77
2021/10/07 04:26:12;;;;;;;7.22;3.39;;;;;;;6.02;47.06;102974.41;444310;116;930892;-75
2021/10/07 04:27:16;;;;;;;5.47;3.34;;;;;;;6.02;47.06;102974.41;437566;119;930791;-74
2021/10/07 04:28:19;;;;;;;5.22;3.14;;;;;;;6.04;47.02;102973.31;437225;118;923053;-76
2021/10/07 04:29:23;;;;;;;9.96;2.96;;;;;;;6.06;47.00;102968.65;443840;116;923147;-74
2021/10/07 04:30:27;;;;;;;11.84;3.19;;;;;;;6.07;46.91;102970.34;444457;116;930657;-75
2021/10/07 04:31:30;;;;;;;7.55;3.32;;;;;;;6.08;46.86;102974.77;443543;117;923490;-78
2021/10/07 04:32:34;;;;;;;5.66;3.55;;;;;;;6.10;46.84;102972.81;443198;117;930869;-74
2021/10/07 04:33:37;;;;;;;6.53;3.78;;;;;;;6.11;46.81;102974.54;446386;116;930626;-78
2021/10/07 04:34:42;;;;;;;5.50;3.88;;;;;;;6.13;46.79;102980.67;447170;118;930380;-76
2021/10/07 04:35:46;;;;;;;10.43;4.53;;;;;;;6.14;46.73;102979.69;446426;117;922557;-77
2021/10/07 04:36:49;;;;;;;6.35;3.69;;;;;;;6.16;46.71;102980.43;446067;116;930668;-78
2021/10/07 04:37:53;;;;;;;5.97;3.47;;;;;;;6.18;46.62;102985.70;446677;116;922526;-78
2021/10/07 04:38:57;;;;;;;6.18;3.39;;;;;;;6.18;46.49;102980.28;443701;116;923024;-77
2021/10/07 04:40:00;;;;;;;5.79;3.27;;;;;;;6.19;46.47;102979.30;445437;116;922712;-77
2021/10/07 04:41:04;;;;;;;4.06;3.10;;;;;;;6.20;46.46;102981.89;446015;116;926502;-77
2021/10/07 04:42:08;;;;;;;4.71;3.14;;;;;;;6.22;46.44;102981.77;446768;116;923107;-77
2021/10/07 04:43:11;;;;;;;5.96;3.49;;;;;;;6.22;46.43;102979.92;433546;118;930485;-75
2021/10/07 04:44:15;;;;;;;6.51;3.42;;;;;;;6.24;46.37;102977.06;436573;118;922704;-77
2021/10/07 04:45:19;;;;;;;9.13;3.46;;;;;;;6.25;46.37;102986.92;445911;116;922472;-74
2021/10/07 04:46:23;;;;;;;8.13;3.26;;;;;;;6.27;46.38;102982.24;446335;116;923226;-76
2021/10/07 04:47:28;;;;;;;4.19;3.33;;;;;;;6.28;46.33;102989.39;446005;116;922653;-78
2021/10/07 04:48:33;;;;;;;5.42;3.62;;;;;;;6.28;46.37;102983.97;445890;116;931158;-74
2021/10/07 04:49:39;;;;;;;7.82;3.91;;;;;;;6.29;46.33;102983.81;446524;116;922564;-77
2021/10/07 04:50:43;;;;;;;6.94;4.19;;;;;;;6.29;46.32;102988.38;446721;116;923060;-78
2021/10/07 04:51:46;;;;;;;5.78;5.01;;;;;;;6.30;46.34;102984.68;446532;118;930701;-77
2021/10/07 04:52:50;;;;;;;10.99;4.76;;;;;;;6.31;46.31;102980.98;446070;116;930427;-77
2021/10/07 04:53:53;;;;;;;6.27;4.01;;;;;;;6.32;46.29;102988.13;446695;116;930690;-73
2021/10/07 04:54:57;;;;;;;7.69;4.37;;;;;;;6.33;46.34;102994.41;446700;118;922581;-76
2021/10/07 04:56:01;;;;;;;5.27;4.46;;;;;;;6.34;46.28;102993.44;446532;117;930617;-75
2021/10/07 04:57:07;;;;;;;7.27;5.53;;;;;;;6.35;46.26;103000.55;446511;116;930658;-75
2021/10/07 04:58:14;;;;;;;5.31;4.64;;;;;;;6.35;46.28;102997.84;446291;116;923072;-76
2021/10/07 04:59:17;;;;;;;9.61;4.64;;;;;;;6.37;46.29;103004.00;446338;118;922701;-78
2021/10/07 05:00:21;;;;;;;10.89;5.10;;;;;;;6.37;46.31;103004.00;436865;118;930785;-76